createdAt,value
2024-02-02T00:00:27.792Z,101597.34
2024-02-02T00:03:30.560Z,101578.22
2024-02-02T00:06:33.039Z,101593.19
2024-02-02T00:09:35.727Z,101598.03
2024-02-02T00:12:38.513Z,101594.94
2024-02-02T00:15:40.971Z,101602.84
2024-02-02T00:18:43.354Z,101592.53
2024-02-02T00:21:45.694Z,101597.72
2024-02-02T00:24:49.050Z,101599.44
2024-02-02T00:27:51.296Z,101590.25
2024-02-02T00:30:53.509Z,101606.50
2024-02-02T00:33:55.814Z,101602.69
2024-02-02T00:36:58.206Z,101600.56
2024-02-02T00:40:00.587Z,101600.50
2024-02-02T00:43:03.146Z,101606.13
2024-02-02T00:46:05.747Z,101605.25
2024-02-02T00:49:07.949Z,101603.31
2024-02-02T00:52:10.252Z,101603.22
2024-02-02T00:55:12.369Z,101601.47
2024-02-02T00:58:14.431Z,101587.75
2024-02-02T01:01:16.541Z,101603.63
2024-02-02T01:04:18.776Z,101601.22
2024-02-02T01:07:21.134Z,101603.19
2024-02-02T01:10:23.605Z,101606.31
2024-02-02T01:13:25.926Z,101603.31
2024-02-02T01:16:28.860Z,101605.91
2024-02-02T01:19:32.289Z,101609.16
2024-02-02T01:22:34.651Z,101599.63
2024-02-02T01:25:36.815Z,101597.53
2024-02-02T01:28:39.233Z,101597.41
2024-02-02T01:31:41.521Z,101591.31
2024-02-02T01:34:43.826Z,101579.56
2024-02-02T01:37:46.201Z,101587.25
2024-02-02T01:40:48.298Z,101570.00
2024-02-02T01:43:50.600Z,101580.31
2024-02-02T01:46:52.778Z,101576.47
2024-02-02T01:49:55.064Z,101561.16
2024-02-02T01:52:57.319Z,101573.97
2024-02-02T01:55:59.538Z,101577.47
2024-02-02T01:59:04.758Z,101577.72
2024-02-02T02:02:07.937Z,101581.25
2024-02-02T02:05:11.259Z,101577.88
2024-02-02T02:08:13.556Z,101569.25
2024-02-02T02:11:16.118Z,101554.50
2024-02-02T02:14:18.489Z,101571.78
2024-02-02T02:17:21.093Z,101565.25
2024-02-02T02:20:26.983Z,101553.38
2024-02-02T02:23:29.643Z,101569.91
2024-02-02T02:26:32.197Z,101559.00
2024-02-02T02:29:34.432Z,101565.25
2024-02-02T02:32:36.800Z,101581.56
2024-02-02T02:35:39.019Z,101576.31
2024-02-02T02:38:41.283Z,101580.88
2024-02-02T02:41:43.559Z,101583.09
2024-02-02T02:44:45.728Z,101578.94
2024-02-02T02:47:48.059Z,101578.28
2024-02-02T02:50:50.692Z,101583.94
2024-02-02T02:53:52.894Z,101577.56
2024-02-02T02:56:55.137Z,101581.66
2024-02-02T02:59:57.605Z,101579.81
2024-02-02T03:03:00.349Z,101576.59
2024-02-02T03:06:02.827Z,101574.63
2024-02-02T03:09:06.128Z,101573.44
2024-02-02T03:12:08.934Z,101579.38
2024-02-02T03:15:12.392Z,101586.94
2024-02-02T03:18:15.983Z,101594.34
2024-02-02T03:21:18.504Z,101598.59
2024-02-02T03:24:21.848Z,101588.78
2024-02-02T03:27:24.248Z,101595.44
2024-02-02T03:30:28.738Z,101599.81
2024-02-02T03:33:31.673Z,101605.28
2024-02-02T03:36:34.459Z,101605.91
2024-02-02T03:39:37.555Z,101602.22
2024-02-02T03:42:39.852Z,101599.34
2024-02-02T03:45:42.167Z,101604.91
2024-02-02T03:48:44.582Z,101608.19
2024-02-02T03:51:47.052Z,101591.53
2024-02-02T03:54:49.542Z,101608.66
2024-02-02T03:57:51.918Z,101604.81
2024-02-02T04:00:54.243Z,101609.50
2024-02-02T04:03:57.303Z,101616.91
2024-02-02T04:07:00.169Z,101614.22
2024-02-02T04:10:02.542Z,101611.28
2024-02-02T04:13:06.451Z,101613.84
2024-02-02T04:16:08.830Z,101607.31
2024-02-02T04:19:16.367Z,101625.88
2024-02-02T04:22:18.730Z,101626.31
2024-02-02T04:25:21.024Z,101620.63
2024-02-02T04:28:23.456Z,101627.31
2024-02-02T04:31:25.707Z,101607.03
2024-02-02T04:34:28.394Z,101635.47
2024-02-02T04:37:31.194Z,101633.47
2024-02-02T04:40:34.001Z,101632.63
2024-02-02T04:43:36.631Z,101641.88
2024-02-02T04:46:38.929Z,101637.59
2024-02-02T04:49:41.236Z,101643.28
2024-02-02T04:52:46.148Z,101657.78
2024-02-02T04:55:48.365Z,101653.78
2024-02-02T04:58:53.400Z,101652.53
2024-02-02T05:01:55.746Z,101657.16
2024-02-02T05:04:57.923Z,101663.41
2024-02-02T05:08:00.158Z,101659.00
2024-02-02T05:11:02.214Z,101653.75
2024-02-02T05:14:04.522Z,101657.28
2024-02-02T05:17:06.837Z,101675.88
2024-02-02T05:20:09.008Z,101677.88
2024-02-02T05:23:12.079Z,101686.09
2024-02-02T05:26:14.272Z,101685.00
2024-02-02T05:29:16.397Z,101687.69
2024-02-02T05:32:18.641Z,101682.19
2024-02-02T05:35:20.872Z,101701.47
2024-02-02T05:38:23.048Z,101701.34
2024-02-02T05:41:25.219Z,101711.28
2024-02-02T05:44:27.396Z,101717.13
2024-02-02T05:47:29.662Z,101731.50
2024-02-02T05:50:32.673Z,101731.75
2024-02-02T05:53:34.906Z,101738.00
2024-02-02T05:56:37.285Z,101739.13
2024-02-02T05:59:39.709Z,101739.19
2024-02-02T06:02:43.321Z,101745.09
2024-02-02T06:05:45.625Z,101733.53
2024-02-02T06:08:48.008Z,101737.22
2024-02-02T06:11:50.076Z,101744.31
2024-02-02T06:14:52.232Z,101747.44
2024-02-02T06:17:54.438Z,101750.28
2024-02-02T06:20:56.711Z,101754.16
2024-02-02T06:23:59.123Z,101739.81
2024-02-02T06:27:01.322Z,101723.63
2024-02-02T06:30:05.184Z,101749.69
2024-02-02T06:33:08.134Z,101757.09
2024-02-02T06:36:10.779Z,101757.09
2024-02-02T06:39:13.467Z,101763.66
2024-02-02T06:42:16.578Z,101753.00
2024-02-02T06:45:18.907Z,101758.78
2024-02-02T06:48:22.764Z,101755.16
2024-02-02T06:51:25.454Z,101760.88
2024-02-02T06:54:27.760Z,101752.50
2024-02-02T06:57:33.592Z,101760.28
2024-02-02T07:00:35.962Z,101752.38
2024-02-02T07:03:38.853Z,101758.84
2024-02-02T07:06:42.152Z,101764.56
2024-02-02T07:09:57.614Z,101758.38
2024-02-02T07:13:01.332Z,101757.75
2024-02-02T07:16:04.133Z,101764.34
2024-02-02T07:19:31.978Z,101764.28
2024-02-02T07:22:42.514Z,101754.78
2024-02-02T07:25:44.710Z,101764.13
2024-02-02T07:28:46.779Z,101746.38
2024-02-02T07:31:49.161Z,101767.22
2024-02-02T07:34:55.360Z,101768.59
2024-02-02T07:38:05.318Z,101783.16
2024-02-02T07:41:13.662Z,101782.66
2024-02-02T07:44:16.354Z,101788.41
2024-02-02T07:47:18.468Z,101780.97
2024-02-02T07:50:20.686Z,101770.97
2024-02-02T07:53:24.100Z,101788.09
2024-02-02T07:56:27.250Z,101791.31
2024-02-02T07:59:29.465Z,101790.81
2024-02-02T08:02:31.637Z,101791.31
2024-02-02T08:05:38.569Z,101787.59
2024-02-02T08:08:41.031Z,101787.59
2024-02-02T08:11:43.229Z,101792.31
2024-02-02T08:14:45.332Z,101791.66
2024-02-02T08:17:47.441Z,101793.84
2024-02-02T08:20:49.649Z,101799.94
2024-02-02T08:23:51.801Z,101794.31
2024-02-02T08:26:54.764Z,101793.47
2024-02-02T08:29:57.227Z,101796.53
2024-02-02T08:32:59.472Z,101805.16
2024-02-02T08:36:01.834Z,101809.56
2024-02-02T08:39:04.289Z,101818.06
2024-02-02T08:42:15.857Z,101812.22
2024-02-02T08:45:44.554Z,101807.66
2024-02-02T08:48:48.408Z,101798.41
2024-02-02T08:51:52.735Z,101824.22
2024-02-02T08:54:55.062Z,101826.56
2024-02-02T08:58:03.245Z,101829.22
2024-02-02T09:01:08.120Z,101829.84
2024-02-02T09:04:34.617Z,101826.25
2024-02-02T09:07:37.365Z,101815.06
2024-02-02T09:10:41.862Z,101827.97
2024-02-02T09:13:45.864Z,101829.44
2024-02-02T09:16:50.846Z,101823.00
2024-02-02T09:19:56.819Z,101813.19
2024-02-02T09:23:00.588Z,101825.91
2024-02-02T09:26:12.594Z,101811.50
2024-02-02T09:29:15.302Z,101798.59
2024-02-02T09:32:17.613Z,101803.72
2024-02-02T09:35:55.309Z,101818.41
2024-02-02T09:38:58.772Z,101826.53
2024-02-02T09:42:01.229Z,101815.41
2024-02-02T09:45:28.797Z,101811.81
2024-02-02T09:49:02.321Z,101786.22
2024-02-02T09:52:39.784Z,101815.69
2024-02-02T09:56:11.591Z,101806.56
2024-02-02T09:59:23.901Z,101796.66
2024-02-02T10:02:31.563Z,101813.25
2024-02-02T10:06:04.791Z,101813.38
2024-02-02T10:09:23.279Z,101815.28
2024-02-02T10:12:49.607Z,101815.28
2024-02-02T10:16:31.451Z,101812.69
2024-02-02T10:19:45.991Z,101811.47
2024-02-02T10:23:09.773Z,101820.44
2024-02-02T10:26:29.831Z,101812.59
2024-02-02T10:29:44.292Z,101799.44
2024-02-02T10:32:55.529Z,101796.31
2024-02-02T10:36:00.620Z,101801.03
2024-02-02T10:39:24.360Z,101788.72
2024-02-02T10:42:47.560Z,101787.19
2024-02-02T10:46:07.933Z,101796.44
2024-02-02T10:49:35.326Z,101793.72
2024-02-02T10:52:59.089Z,101798.63
2024-02-02T10:56:26.185Z,101788.56
2024-02-02T10:59:34.625Z,101804.00
2024-02-02T11:02:53.047Z,101797.84
2024-02-02T11:06:11.125Z,101800.03
2024-02-02T11:09:13.359Z,101806.03
2024-02-02T11:12:24.765Z,101805.19
2024-02-02T11:15:48.472Z,101806.56
2024-02-02T11:19:22.598Z,101810.97
2024-02-02T11:22:55.786Z,101813.22
2024-02-02T11:26:08.510Z,101816.91
2024-02-02T11:29:24.402Z,101802.19
2024-02-02T11:32:45.750Z,101807.94
2024-02-02T11:35:59.663Z,101820.97
2024-02-02T11:39:01.855Z,101817.91
2024-02-02T11:42:05.510Z,101804.22
2024-02-02T11:45:19.433Z,101803.38
2024-02-02T11:48:35.240Z,101807.63
2024-02-02T11:51:38.804Z,101812.88
2024-02-02T11:55:22.678Z,101803.47
2024-02-02T11:58:26.610Z,101802.91
2024-02-02T12:01:35.466Z,101802.69
2024-02-02T12:04:43.452Z,101820.53
2024-02-02T12:08:04.789Z,101822.38
2024-02-02T12:11:11.212Z,101804.41
2024-02-02T12:14:39.595Z,101828.34
2024-02-02T12:17:41.974Z,101823.47
2024-02-02T12:20:45.387Z,101814.69
2024-02-02T12:23:48.685Z,101810.91
2024-02-02T12:26:51.413Z,101825.81
2024-02-02T12:29:53.694Z,101821.06
2024-02-02T12:32:58.713Z,101802.88
2024-02-02T12:36:07.127Z,101815.47
2024-02-02T12:39:12.194Z,101814.03
2024-02-02T12:42:14.496Z,101828.56
2024-02-02T12:45:17.619Z,101816.31
2024-02-02T12:48:21.177Z,101786.50
2024-02-02T12:51:26.093Z,101770.47
2024-02-02T12:54:28.263Z,101794.28
2024-02-02T12:57:30.636Z,101788.81
2024-02-02T13:00:33.261Z,101794.47
2024-02-02T13:03:41.330Z,101805.28
2024-02-02T13:06:47.151Z,101804.22
2024-02-02T13:09:52.567Z,101811.66
2024-02-02T13:12:54.805Z,101810.78
2024-02-02T13:15:57.141Z,101799.91
2024-02-02T13:19:00.156Z,101788.97
2024-02-02T13:22:03.395Z,101812.53
2024-02-02T13:25:11.745Z,101799.16
2024-02-02T13:28:14.302Z,101813.91
2024-02-02T13:31:20.040Z,101805.94
2024-02-02T13:34:23.354Z,101808.09
2024-02-02T13:37:38.974Z,101809.66
2024-02-02T13:40:42.149Z,101812.34
2024-02-02T13:43:45.718Z,101810.19
2024-02-02T13:46:48.483Z,101803.75
2024-02-02T13:49:57.101Z,101831.56
2024-02-02T13:52:59.781Z,101846.41
2024-02-02T13:56:11.516Z,101838.91
2024-02-02T13:59:20.618Z,101840.09
2024-02-02T14:02:25.570Z,101834.91
2024-02-02T14:05:27.686Z,101813.91
2024-02-02T14:08:40.563Z,101812.13
2024-02-02T14:11:42.976Z,101830.91
2024-02-02T14:14:45.682Z,101821.84
2024-02-02T14:17:48.251Z,101802.09
2024-02-02T14:20:50.537Z,101811.69
2024-02-02T14:23:52.789Z,101803.47
2024-02-02T14:26:57.157Z,101798.00
2024-02-02T14:29:59.412Z,101798.72
2024-02-02T14:33:13.632Z,101802.41
2024-02-02T14:36:23.932Z,101810.78
2024-02-02T14:39:27.704Z,101794.22
2024-02-02T14:42:30.477Z,101799.78
2024-02-02T14:45:34.548Z,101798.16
2024-02-02T14:48:38.647Z,101800.63
2024-02-02T14:51:42.144Z,101798.31
2024-02-02T14:54:46.263Z,101801.06
2024-02-02T14:57:49.399Z,101815.00
2024-02-02T15:00:53.954Z,101831.75
2024-02-02T15:03:56.213Z,101822.25
2024-02-02T15:06:59.212Z,101829.50
2024-02-02T15:10:01.674Z,101846.88
2024-02-02T15:13:05.719Z,101850.13
2024-02-02T15:16:10.804Z,101848.25
2024-02-02T15:19:13.064Z,101850.72
2024-02-02T15:22:15.274Z,101867.34
2024-02-02T15:25:17.450Z,101870.50
2024-02-02T15:28:19.620Z,101865.09
2024-02-02T15:31:21.935Z,101869.09
2024-02-02T15:34:24.734Z,101869.09
2024-02-02T15:37:27.761Z,101877.63
2024-02-02T15:40:29.996Z,101857.63
2024-02-02T15:43:32.124Z,101865.78
2024-02-02T15:46:34.335Z,101863.56
2024-02-02T15:49:36.685Z,101875.47
2024-02-02T15:52:40.262Z,101863.22
2024-02-02T15:55:42.464Z,101871.50
2024-02-02T15:58:45.040Z,101880.09
2024-02-02T16:01:47.932Z,101889.72
2024-02-02T16:04:57.189Z,101884.97
2024-02-02T16:07:59.271Z,101891.19
2024-02-02T16:11:01.307Z,101891.56
2024-02-02T16:14:03.520Z,101895.28
2024-02-02T16:17:07.755Z,101877.50
2024-02-02T16:20:11.217Z,101892.34
2024-02-02T16:23:13.361Z,101899.94
2024-02-02T16:26:15.596Z,101895.03
2024-02-02T16:29:17.861Z,101905.50
2024-02-02T16:32:19.953Z,101900.63
2024-02-02T16:35:25.643Z,101868.88
2024-02-02T16:38:28.353Z,101890.81
2024-02-02T16:41:30.500Z,101898.25
2024-02-02T16:44:32.889Z,101876.84
2024-02-02T16:47:34.977Z,101879.56
2024-02-02T16:50:38.271Z,101893.44
2024-02-02T16:53:43.096Z,101893.84
2024-02-02T16:56:45.390Z,101901.78
2024-02-02T16:59:48.055Z,101893.84
2024-02-02T17:02:52.335Z,101906.66
2024-02-02T17:05:54.555Z,101905.19
2024-02-02T17:08:57.550Z,101891.44
2024-02-02T17:11:59.846Z,101896.97
2024-02-02T17:15:01.931Z,101904.31
2024-02-02T17:18:04.298Z,101895.75
2024-02-02T17:21:09.487Z,101907.50
2024-02-02T17:24:11.770Z,101907.56
2024-02-02T17:27:13.905Z,101912.53
2024-02-02T17:30:18.174Z,101909.97
2024-02-02T17:33:21.371Z,101909.28
2024-02-02T17:36:23.619Z,101893.50
2024-02-02T17:39:25.749Z,101908.50
2024-02-02T17:42:27.867Z,101910.59
2024-02-02T17:45:29.988Z,101904.00
2024-02-02T17:48:33.428Z,101905.38
2024-02-02T17:51:35.618Z,101910.31
2024-02-02T17:54:37.763Z,101905.81
2024-02-02T17:57:40.088Z,101916.22
2024-02-02T18:00:42.440Z,101915.72
2024-02-02T18:03:44.709Z,101917.84
2024-02-02T18:06:46.935Z,101909.38
2024-02-02T18:09:49.212Z,101901.28
2024-02-02T18:12:52.011Z,101900.00
2024-02-02T18:15:54.485Z,101899.34
2024-02-02T18:18:56.813Z,101900.00
2024-02-02T18:21:58.983Z,101898.88
2024-02-02T18:25:01.250Z,101897.47
2024-02-02T18:28:03.698Z,101889.84
2024-02-02T18:31:05.904Z,101894.50
2024-02-02T18:34:08.357Z,101889.69
2024-02-02T18:37:10.705Z,101891.41
2024-02-02T18:40:13.675Z,101892.84
2024-02-02T18:43:15.825Z,101875.66
2024-02-02T18:46:27.594Z,101874.69
2024-02-02T18:49:33.255Z,101884.19
2024-02-02T18:52:36.368Z,101889.13
2024-02-02T18:55:38.675Z,101893.56
2024-02-02T18:58:46.136Z,101882.66
2024-02-02T19:01:49.261Z,101882.06
2024-02-02T19:04:52.339Z,101886.34
2024-02-02T19:07:54.744Z,101874.59
2024-02-02T19:10:57.154Z,101878.00
2024-02-02T19:14:00.580Z,101871.03
2024-02-02T19:17:02.716Z,101881.56
2024-02-02T19:20:05.337Z,101882.78
2024-02-02T19:23:07.866Z,101875.59
2024-02-02T19:26:10.981Z,101874.75
2024-02-02T19:29:13.316Z,101877.00
2024-02-02T19:32:16.630Z,101876.00
2024-02-02T19:35:18.825Z,101882.97
2024-02-02T19:38:20.974Z,101875.59
2024-02-02T19:41:27.320Z,101879.31
2024-02-02T19:44:29.435Z,101851.63
2024-02-02T19:47:31.734Z,101822.28
2024-02-02T19:50:33.825Z,101862.97
2024-02-02T19:53:36.459Z,101857.44
2024-02-02T19:56:38.612Z,101857.16
2024-02-02T19:59:41.994Z,101836.16
2024-02-02T20:02:48.857Z,101849.38
2024-02-02T20:05:51.602Z,101844.25
2024-02-02T20:08:53.793Z,101845.66
2024-02-02T20:11:56.279Z,101849.28
2024-02-02T20:14:58.865Z,101837.03
2024-02-02T20:18:03.208Z,101845.00
2024-02-02T20:21:05.813Z,101833.47
2024-02-02T20:24:08.369Z,101808.94
2024-02-02T20:27:10.824Z,101829.78
2024-02-02T20:30:14.132Z,101823.59
2024-02-02T20:33:16.854Z,101825.03
2024-02-02T20:36:21.315Z,101826.03
2024-02-02T20:39:23.714Z,101816.22
2024-02-02T20:42:26.023Z,101820.63
2024-02-02T20:45:28.835Z,101818.97
2024-02-02T20:48:31.094Z,101817.31
2024-02-02T20:51:33.494Z,101816.81
2024-02-02T20:54:35.783Z,101803.56
2024-02-02T20:57:38.162Z,101812.63
2024-02-02T21:00:40.810Z,101815.00
2024-02-02T21:03:43.335Z,101806.53
2024-02-02T21:06:45.859Z,101794.44
2024-02-02T21:09:48.265Z,101786.13
2024-02-02T21:12:50.486Z,101784.53
2024-02-02T21:15:54.037Z,101789.28
2024-02-02T21:18:57.829Z,101792.50
2024-02-02T21:22:02.845Z,101789.09
2024-02-02T21:25:06.014Z,101781.97
2024-02-02T21:28:08.241Z,101786.72
2024-02-02T21:31:10.657Z,101782.69
2024-02-02T21:34:13.035Z,101779.09
2024-02-02T21:37:15.655Z,101772.81
2024-02-02T21:40:18.076Z,101777.06
2024-02-02T21:43:20.275Z,101783.16
2024-02-02T21:46:22.665Z,101773.28
2024-02-02T21:49:24.960Z,101782.09
2024-02-02T21:52:27.374Z,101775.78
2024-02-02T21:55:29.565Z,101780.03
2024-02-02T21:58:32.535Z,101778.47
2024-02-02T22:01:39.418Z,101776.09
2024-02-02T22:04:41.698Z,101780.78
2024-02-02T22:07:43.962Z,101769.25
2024-02-02T22:10:46.302Z,101778.84
2024-02-02T22:13:49.521Z,101773.09
2024-02-02T22:16:51.856Z,101782.03
2024-02-02T22:19:54.241Z,101780.06
2024-02-02T22:22:56.468Z,101777.38
2024-02-02T22:25:59.055Z,101771.06
2024-02-02T22:29:02.078Z,101763.91
2024-02-02T22:32:04.892Z,101744.56
2024-02-02T22:35:07.853Z,101739.03
2024-02-02T22:38:10.152Z,101731.22
2024-02-02T22:41:32.221Z,101731.88
2024-02-02T22:44:36.504Z,101738.28
2024-02-02T22:47:39.658Z,101734.13
2024-02-02T22:50:41.896Z,101722.94
2024-02-02T22:53:44.265Z,101716.28
2024-02-02T22:56:46.355Z,101717.06
2024-02-02T22:59:53.642Z,101699.63
2024-02-02T23:03:01.773Z,101708.00
2024-02-02T23:06:05.343Z,101681.88
2024-02-02T23:09:07.687Z,101699.16
2024-02-02T23:12:10.913Z,101685.06
2024-02-02T23:15:13.292Z,101701.56
2024-02-02T23:18:15.662Z,101683.22
2024-02-02T23:21:17.873Z,101682.06
2024-02-02T23:24:20.046Z,101686.63
2024-02-02T23:27:22.344Z,101690.72
2024-02-02T23:30:24.790Z,101687.63
2024-02-02T23:33:27.788Z,101682.00
2024-02-02T23:36:30.089Z,101679.94
2024-02-02T23:39:32.286Z,101682.06
2024-02-02T23:42:34.598Z,101668.66
2024-02-02T23:45:36.793Z,101672.19
2024-02-02T23:48:39.120Z,101665.88
2024-02-02T23:51:41.748Z,101662.94
2024-02-02T23:54:44.221Z,101661.31
2024-02-02T23:57:46.641Z,101650.88
